createdAt,value
2018-02-16T00:00:37.079Z,34.10
2018-02-16T00:01:37.067Z,32.60
2018-02-16T00:02:37.057Z,33.60
2018-02-16T00:03:37.042Z,32.70
2018-02-16T00:04:37.031Z,33.60
2018-02-16T00:05:37.023Z,32.80
2018-02-16T00:06:37.003Z,32.00
2018-02-16T00:07:36.990Z,32.40
2018-02-16T00:08:36.979Z,31.00
2018-02-16T00:09:36.967Z,30.90
2018-02-16T00:10:36.955Z,31.80
2018-02-16T00:11:36.942Z,33.00
2018-02-16T00:12:36.930Z,31.30
2018-02-16T00:13:36.918Z,29.80
2018-02-16T00:14:36.910Z,32.40
2018-02-16T00:15:36.898Z,31.70
2018-02-16T00:16:36.889Z,32.70
2018-02-16T00:17:36.874Z,31.80
2018-02-16T00:18:36.862Z,33.40
2018-02-16T00:19:36.850Z,32.50
2018-02-16T00:20:36.837Z,31.40
2018-02-16T00:21:36.826Z,31.60
2018-02-16T00:22:36.810Z,32.50
2018-02-16T00:23:36.796Z,32.60
2018-02-16T00:24:36.784Z,34.80
2018-02-16T00:25:36.772Z,34.10
2018-02-16T00:26:36.761Z,33.20
2018-02-16T00:27:36.748Z,34.50
2018-02-16T00:28:36.736Z,32.40
2018-02-16T00:29:36.724Z,34.50
2018-02-16T00:30:36.716Z,34.90
2018-02-16T00:31:36.703Z,36.30
2018-02-16T00:32:36.691Z,31.70
2018-02-16T00:33:36.679Z,33.00
2018-02-16T00:34:36.667Z,34.30
2018-02-16T00:35:36.654Z,34.90
2018-02-16T00:36:36.642Z,33.00
2018-02-16T00:37:36.630Z,35.40
2018-02-16T00:38:36.616Z,34.60
2018-02-16T00:39:36.601Z,34.10
2018-02-16T00:40:36.588Z,34.50
2018-02-16T00:41:36.576Z,33.00
2018-02-16T00:42:36.565Z,32.40
2018-02-16T00:43:36.552Z,31.60
2018-02-16T00:44:36.539Z,32.50
2018-02-16T00:45:36.528Z,33.20
2018-02-16T00:46:36.520Z,34.90
2018-02-16T00:47:36.507Z,33.60
2018-02-16T00:48:36.495Z,30.70
2018-02-16T00:49:36.483Z,35.40
2018-02-16T00:50:36.467Z,33.90
2018-02-16T00:51:36.455Z,36.30
2018-02-16T00:52:36.442Z,33.40
2018-02-16T00:53:36.430Z,33.30
2018-02-16T00:54:36.422Z,31.70
2018-02-16T00:55:36.409Z,35.50
2018-02-16T00:56:36.397Z,30.40
2018-02-16T00:57:36.385Z,31.00
2018-02-16T00:58:36.373Z,33.90
2018-02-16T00:59:36.360Z,35.40
2018-02-16T01:00:36.348Z,33.80
2018-02-16T01:01:36.336Z,35.50
2018-02-16T01:02:36.320Z,33.40
2018-02-16T01:03:36.306Z,34.90
2018-02-16T01:04:36.295Z,33.40
2018-02-16T01:05:36.282Z,32.80
2018-02-16T01:06:36.271Z,33.50
2018-02-16T01:07:36.257Z,33.90
2018-02-16T01:08:36.243Z,35.70
2018-02-16T01:09:36.233Z,35.70
2018-02-16T01:10:36.224Z,33.20
2018-02-16T01:11:36.212Z,35.40
2018-02-16T01:12:36.199Z,34.80
2018-02-16T01:13:36.187Z,34.60
2018-02-16T01:14:36.175Z,34.80
2018-02-16T01:15:36.162Z,32.10
2018-02-16T01:16:36.149Z,34.90
2018-02-16T01:17:36.137Z,34.20
2018-02-16T01:18:36.122Z,34.20
2018-02-16T01:19:36.108Z,34.50
2018-02-16T01:20:36.095Z,34.80
2018-02-16T01:21:36.083Z,37.00
2018-02-16T01:22:36.071Z,37.10
2018-02-16T01:23:36.058Z,36.60
2018-02-16T01:24:36.045Z,36.70
2018-02-16T01:25:36.033Z,37.70
2018-02-16T01:26:36.029Z,37.70
2018-02-16T01:27:36.012Z,41.00
2018-02-16T01:28:35.999Z,37.00
2018-02-16T01:29:35.987Z,37.80
2018-02-16T01:30:35.975Z,42.30
2018-02-16T01:31:35.961Z,40.50
2018-02-16T01:32:35.949Z,40.60
2018-02-16T01:33:35.937Z,38.10
2018-02-16T01:34:35.924Z,42.40
2018-02-16T01:35:35.908Z,43.50
2018-02-16T01:36:35.895Z,47.00
2018-02-16T01:37:35.883Z,43.80
2018-02-16T01:38:35.870Z,55.80
2018-02-16T01:39:35.858Z,48.40
2018-02-16T01:40:35.845Z,49.90
2018-02-16T01:41:35.832Z,47.90
2018-02-16T01:42:35.829Z,49.60
2018-02-16T01:43:35.811Z,48.10
2018-02-16T01:44:35.799Z,48.40
2018-02-16T01:45:35.787Z,50.60
2018-02-16T01:46:35.774Z,48.50
2018-02-16T01:47:35.761Z,45.20
2018-02-16T01:48:35.748Z,46.80
2018-02-16T01:49:35.737Z,48.40
2018-02-16T01:50:35.720Z,49.00
2018-02-16T01:51:35.707Z,47.80
2018-02-16T01:52:35.695Z,48.00
2018-02-16T01:53:35.683Z,46.30
2018-02-16T01:54:35.674Z,48.10
2018-02-16T01:55:35.661Z,50.00
2018-02-16T01:56:35.650Z,48.50
2018-02-16T01:57:35.637Z,49.00
2018-02-16T01:58:35.621Z,46.70
2018-02-16T01:59:35.607Z,47.20
2018-02-16T02:00:35.596Z,47.50
2018-02-16T02:01:35.583Z,45.10
2018-02-16T02:02:35.571Z,46.60
2018-02-16T02:03:35.558Z,51.00
2018-02-16T02:04:35.546Z,46.70
2018-02-16T02:05:35.534Z,46.20
2018-02-16T02:06:35.526Z,47.50
2018-02-16T02:07:35.513Z,47.20
2018-02-16T02:08:35.501Z,46.20
2018-02-16T02:09:35.489Z,50.20
2018-02-16T02:10:35.477Z,49.00
2018-02-16T02:11:35.464Z,46.50
2018-02-16T02:12:35.452Z,45.70
2018-02-16T02:13:35.440Z,41.20
2018-02-16T02:14:35.424Z,42.20
2018-02-16T02:15:35.410Z,42.90
2018-02-16T02:16:35.398Z,42.80
2018-02-16T02:17:35.386Z,41.60
2018-02-16T02:18:35.379Z,39.90
2018-02-16T02:19:35.361Z,40.00
2018-02-16T02:20:35.349Z,39.50
2018-02-16T02:21:35.337Z,39.90
2018-02-16T02:22:35.330Z,42.60
2018-02-16T02:23:35.318Z,39.10
2018-02-16T02:24:35.305Z,38.50
2018-02-16T02:25:35.292Z,39.80
2018-02-16T02:26:35.281Z,38.60
2018-02-16T02:27:35.269Z,37.60
2018-02-16T02:28:35.256Z,40.90
2018-02-16T02:29:35.243Z,40.20
2018-02-16T02:30:35.228Z,41.50
2018-02-16T02:31:35.214Z,38.80
2018-02-16T02:32:35.203Z,39.00
2018-02-16T02:33:35.195Z,39.30
2018-02-16T02:34:35.180Z,39.50
2018-02-16T02:35:35.165Z,39.50
2018-02-16T02:36:35.154Z,36.40
2018-02-16T02:37:35.142Z,39.10
2018-02-16T02:38:35.135Z,40.30
2018-02-16T02:39:35.127Z,39.50
2018-02-16T02:40:35.110Z,40.00
2018-02-16T02:41:35.098Z,38.30
2018-02-16T02:42:35.086Z,37.60
2018-02-16T02:43:35.073Z,38.10
2018-02-16T02:44:35.082Z,37.70
2018-02-16T02:45:35.049Z,39.70
2018-02-16T02:46:35.034Z,35.80
2018-02-16T02:47:35.024Z,37.90
2018-02-16T02:48:35.009Z,39.30
2018-02-16T02:49:34.998Z,37.50
2018-02-16T02:50:34.985Z,37.00
2018-02-16T02:51:34.973Z,38.20
2018-02-16T02:52:34.960Z,37.00
2018-02-16T02:53:34.949Z,36.10
2018-02-16T02:54:34.941Z,37.30
2018-02-16T02:55:34.928Z,36.60
2018-02-16T02:56:34.916Z,37.50
2018-02-16T02:57:34.904Z,35.10
2018-02-16T02:58:34.888Z,36.90
2018-02-16T02:59:34.877Z,35.90
2018-02-16T03:00:34.864Z,35.80
2018-02-16T03:01:34.851Z,35.00
2018-02-16T03:02:34.844Z,35.00
2018-02-16T03:03:34.831Z,36.00
2018-02-16T03:04:34.819Z,35.30
2018-02-16T03:05:34.809Z,36.60
2018-02-16T03:06:34.795Z,37.50
2018-02-16T03:07:34.782Z,38.50
2018-02-16T03:08:34.770Z,35.20
2018-02-16T03:09:34.759Z,34.70
2018-02-16T03:10:34.743Z,38.10
2018-02-16T03:11:34.729Z,36.20
2018-02-16T03:12:34.718Z,33.90
2018-02-16T03:13:34.706Z,33.80
2018-02-16T03:14:34.694Z,34.10
2018-02-16T03:15:34.682Z,35.10
2018-02-16T03:16:34.669Z,34.40
2018-02-16T03:17:34.658Z,33.80
2018-02-16T03:18:34.649Z,34.10
2018-02-16T03:19:34.637Z,35.20
2018-02-16T03:20:34.625Z,34.10
2018-02-16T03:21:34.613Z,34.60
2018-02-16T03:22:34.601Z,35.60
2018-02-16T03:23:34.588Z,34.00
2018-02-16T03:24:34.576Z,34.50
2018-02-16T03:25:34.565Z,36.00
2018-02-16T03:26:34.549Z,35.50
2018-02-16T03:27:34.537Z,35.80
2018-02-16T03:28:34.524Z,34.20
2018-02-16T03:29:34.512Z,35.00
2018-02-16T03:30:34.501Z,36.20
2018-02-16T03:31:34.489Z,33.90
2018-02-16T03:32:34.476Z,36.00
2018-02-16T03:33:34.463Z,36.30
2018-02-16T03:34:34.456Z,36.90
2018-02-16T03:35:34.442Z,34.30
2018-02-16T03:36:34.433Z,36.90
2018-02-16T03:37:34.419Z,36.60
2018-02-16T03:38:34.408Z,36.80
2018-02-16T03:39:34.394Z,39.10
2018-02-16T03:40:34.383Z,36.20
2018-02-16T03:41:34.371Z,37.30
2018-02-16T03:42:34.354Z,38.10
2018-02-16T03:43:34.342Z,37.70
2018-02-16T03:44:34.330Z,39.70
2018-02-16T03:45:34.318Z,38.50
2018-02-16T03:46:34.305Z,36.70
2018-02-16T03:47:34.293Z,37.90
2018-02-16T03:48:34.281Z,36.60
2018-02-16T03:49:34.269Z,37.80
2018-02-16T03:50:34.261Z,36.70
2018-02-16T03:51:34.253Z,37.30
2018-02-16T03:52:34.237Z,35.90
2018-02-16T03:53:34.228Z,36.70
2018-02-16T03:54:34.213Z,38.60
2018-02-16T03:55:34.200Z,36.80
2018-02-16T03:56:34.188Z,38.40
2018-02-16T03:57:34.177Z,39.70
2018-02-16T03:58:34.160Z,37.80
2018-02-16T03:59:34.148Z,39.90
2018-02-16T04:00:34.135Z,37.40
2018-02-16T04:01:34.124Z,37.00
2018-02-16T04:02:34.116Z,41.20
2018-02-16T04:03:34.104Z,39.40
2018-02-16T04:04:34.092Z,37.60
2018-02-16T04:05:34.080Z,38.90
2018-02-16T04:06:34.063Z,36.90
2018-02-16T04:07:34.054Z,37.20
2018-02-16T04:08:34.039Z,36.30
2018-02-16T04:09:34.027Z,37.00
2018-02-16T04:10:34.015Z,36.30
2018-02-16T04:11:34.003Z,36.60
2018-02-16T04:12:33.991Z,34.40
2018-02-16T04:13:33.993Z,36.40
2018-02-16T04:14:33.971Z,37.60
2018-02-16T04:15:33.958Z,36.80
2018-02-16T04:16:33.946Z,36.50
2018-02-16T04:17:33.935Z,35.50
2018-02-16T04:18:33.923Z,37.10
2018-02-16T04:19:33.910Z,36.30
2018-02-16T04:20:33.908Z,36.40
2018-02-16T04:21:33.887Z,32.60
2018-02-16T04:22:33.871Z,36.40
2018-02-16T04:23:33.859Z,34.60
2018-02-16T04:24:33.847Z,33.20
2018-02-16T04:25:33.834Z,34.60
2018-02-16T04:26:33.822Z,36.80
2018-02-16T04:27:33.811Z,36.30
2018-02-16T04:28:33.799Z,33.60
2018-02-16T04:29:33.787Z,34.80
2018-02-16T04:30:33.780Z,35.10
2018-02-16T04:31:33.766Z,34.80
2018-02-16T04:32:33.754Z,35.40
2018-02-16T04:33:33.743Z,35.00
2018-02-16T04:34:33.732Z,37.90
2018-02-16T04:35:33.719Z,37.90
2018-02-16T04:36:33.707Z,37.70
2018-02-16T04:37:33.695Z,37.10
2018-02-16T04:38:33.679Z,35.40
2018-02-16T04:39:33.666Z,35.80
2018-02-16T04:40:33.654Z,35.80
2018-02-16T04:41:33.643Z,36.20
2018-02-16T04:42:33.631Z,38.80
2018-02-16T04:43:33.619Z,37.50
2018-02-16T04:44:33.610Z,36.60
2018-02-16T04:45:33.598Z,37.10
2018-02-16T04:46:33.588Z,37.90
2018-02-16T04:47:33.574Z,39.20
2018-02-16T04:48:33.563Z,38.30
2018-02-16T04:49:33.551Z,38.00
2018-02-16T04:50:33.542Z,39.20
2018-02-16T04:51:33.526Z,39.50
2018-02-16T04:52:33.514Z,40.20
2018-02-16T04:53:33.502Z,38.00
2018-02-16T04:54:33.486Z,39.80
2018-02-16T04:55:33.474Z,40.60
2018-02-16T04:56:33.462Z,41.80
2018-02-16T04:57:33.451Z,39.80
2018-02-16T04:58:33.438Z,38.30
2018-02-16T04:59:33.425Z,40.50
2018-02-16T05:00:33.413Z,41.60
2018-02-16T05:01:33.401Z,42.90
2018-02-16T05:02:33.394Z,40.50
2018-02-16T05:03:33.381Z,42.50
2018-02-16T05:04:33.371Z,43.30
2018-02-16T05:05:33.357Z,42.00
2018-02-16T05:06:33.341Z,42.80
2018-02-16T05:07:33.329Z,41.80
2018-02-16T05:08:33.317Z,41.30
2018-02-16T05:09:33.304Z,42.70
2018-02-16T05:10:33.296Z,43.80
2018-02-16T05:11:33.284Z,44.10
2018-02-16T05:12:33.272Z,44.20
2018-02-16T05:13:33.259Z,43.90
2018-02-16T05:14:33.248Z,47.90
2018-02-16T05:15:33.235Z,44.90
2018-02-16T05:16:33.223Z,46.50
2018-02-16T05:17:33.212Z,44.60
2018-02-16T05:18:33.195Z,46.20
2018-02-16T05:19:33.182Z,45.70
2018-02-16T05:20:33.170Z,45.70
2018-02-16T05:21:33.158Z,49.10
2018-02-16T05:22:33.146Z,45.20
2018-02-16T05:23:33.133Z,47.60
2018-02-16T05:24:33.122Z,46.00
2018-02-16T05:25:33.109Z,45.30
2018-02-16T05:26:33.101Z,47.10
2018-02-16T05:27:33.088Z,46.00
2018-02-16T05:28:33.076Z,46.20
2018-02-16T05:29:33.065Z,45.10
2018-02-16T05:30:33.053Z,46.40
2018-02-16T05:31:33.043Z,44.60
2018-02-16T05:32:33.028Z,46.80
2018-02-16T05:33:33.016Z,45.20
2018-02-16T05:34:32.999Z,45.40
2018-02-16T05:35:32.987Z,44.70
2018-02-16T05:36:32.974Z,45.30
2018-02-16T05:37:32.962Z,45.00
2018-02-16T05:38:32.951Z,45.80
2018-02-16T05:39:32.938Z,46.00
2018-02-16T05:40:32.924Z,46.00
2018-02-16T05:41:32.914Z,44.60
2018-02-16T05:42:32.906Z,44.00
2018-02-16T05:43:32.893Z,44.70
2018-02-16T05:44:32.880Z,44.80
2018-02-16T05:45:32.868Z,46.60
2018-02-16T05:46:32.866Z,45.20
2018-02-16T05:47:32.843Z,45.40
2018-02-16T05:48:32.832Z,45.50
2018-02-16T05:49:32.820Z,45.80
2018-02-16T05:50:32.804Z,45.70
2018-02-16T05:51:32.790Z,46.90
2018-02-16T05:52:32.778Z,45.80
2018-02-16T05:53:32.766Z,44.70
2018-02-16T05:54:32.754Z,46.00
2018-02-16T05:55:32.741Z,46.60
2018-02-16T05:56:32.729Z,48.00
2018-02-16T05:57:32.717Z,45.50
2018-02-16T05:58:32.709Z,45.20
2018-02-16T05:59:32.696Z,45.90
2018-02-16T06:00:32.685Z,46.50
2018-02-16T06:01:32.673Z,45.40
2018-02-16T06:02:32.660Z,44.10
2018-02-16T06:03:32.646Z,45.40
2018-02-16T06:04:32.635Z,44.40
2018-02-16T06:05:32.625Z,44.40
2018-02-16T06:06:32.606Z,46.80
2018-02-16T06:07:32.593Z,45.60
2018-02-16T06:08:32.581Z,44.80
2018-02-16T06:09:32.570Z,43.60
2018-02-16T06:10:32.559Z,46.50
2018-02-16T06:11:32.544Z,46.00
2018-02-16T06:12:32.533Z,47.30
2018-02-16T06:13:32.520Z,45.60
2018-02-16T06:14:32.512Z,46.00
2018-02-16T06:15:32.499Z,48.40
2018-02-16T06:16:32.486Z,46.20
2018-02-16T06:17:32.475Z,45.70
2018-02-16T06:18:32.463Z,46.30
2018-02-16T06:19:32.449Z,46.30
2018-02-16T06:20:32.438Z,44.20
2018-02-16T06:21:32.425Z,44.70
2018-02-16T06:22:32.409Z,44.30
2018-02-16T06:23:32.396Z,44.80
2018-02-16T06:24:32.384Z,44.60
2018-02-16T06:25:32.372Z,44.10
2018-02-16T06:26:32.359Z,47.50
2018-02-16T06:27:32.347Z,45.20
2018-02-16T06:28:32.334Z,45.80
2018-02-16T06:29:32.322Z,45.70
2018-02-16T06:30:32.314Z,43.40
2018-02-16T06:31:32.301Z,45.20
2018-02-16T06:32:32.289Z,45.40
2018-02-16T06:33:32.276Z,43.90
2018-02-16T06:34:32.265Z,42.40
2018-02-16T06:35:32.252Z,42.80
2018-02-16T06:36:32.240Z,42.30
2018-02-16T06:37:32.228Z,42.80
2018-02-16T06:38:32.212Z,43.20
2018-02-16T06:39:32.199Z,44.90
2018-02-16T06:40:32.187Z,43.30
2018-02-16T06:41:32.175Z,42.70
2018-02-16T06:42:32.163Z,42.10
2018-02-16T06:43:32.149Z,43.60
2018-02-16T06:44:32.138Z,43.90
2018-02-16T06:45:32.208Z,44.60
2018-02-16T06:46:32.117Z,43.90
2018-02-16T06:47:32.104Z,44.70
2018-02-16T06:48:32.092Z,43.80
2018-02-16T06:49:32.081Z,43.60
2018-02-16T06:50:32.068Z,41.50
2018-02-16T06:51:32.056Z,41.90
2018-02-16T06:52:32.044Z,42.80
2018-02-16T06:53:32.034Z,44.40
2018-02-16T06:54:32.016Z,40.10
2018-02-16T06:55:32.005Z,39.60
2018-02-16T06:56:31.990Z,39.00
2018-02-16T06:57:31.979Z,39.20
2018-02-16T06:58:31.967Z,37.20
2018-02-16T06:59:31.954Z,38.40
2018-02-16T07:00:31.943Z,38.30
2018-02-16T07:01:31.931Z,35.50
2018-02-16T07:02:31.923Z,36.10
2018-02-16T07:03:31.911Z,35.30
2018-02-16T07:04:31.901Z,36.50
2018-02-16T07:05:31.888Z,34.70
2018-02-16T07:06:31.879Z,34.10
2018-02-16T07:07:31.863Z,34.00
2018-02-16T07:08:31.870Z,33.90
2018-02-16T07:09:31.839Z,31.80
2018-02-16T07:10:31.823Z,33.00
2018-02-16T07:11:31.811Z,33.20
2018-02-16T07:12:31.799Z,31.70
2018-02-16T07:13:31.787Z,31.30
2018-02-16T07:14:31.780Z,30.80
2018-02-16T07:15:31.767Z,31.00
2018-02-16T07:16:31.756Z,30.40
2018-02-16T07:17:31.744Z,30.80
2018-02-16T07:18:31.728Z,31.50
2018-02-16T07:19:31.716Z,29.60
2018-02-16T07:20:31.703Z,28.80
2018-02-16T07:21:31.693Z,29.40
2018-02-16T07:22:31.681Z,28.30
2018-02-16T07:23:31.680Z,27.70
2018-02-16T07:24:31.657Z,28.00
2018-02-16T07:25:31.647Z,27.10
2018-02-16T07:26:31.639Z,27.50
2018-02-16T07:27:31.627Z,27.30
2018-02-16T07:28:31.616Z,26.30
2018-02-16T07:29:31.605Z,25.80
2018-02-16T07:30:31.593Z,24.90
2018-02-16T07:31:31.581Z,25.70
2018-02-16T07:32:31.571Z,24.30
2018-02-16T07:33:31.559Z,23.60
2018-02-16T07:34:31.544Z,22.50
2018-02-16T07:35:31.532Z,23.40
2018-02-16T07:36:31.521Z,23.10
2018-02-16T07:37:31.510Z,24.60
2018-02-16T07:38:31.500Z,23.80
2018-02-16T07:39:31.487Z,24.20
2018-02-16T07:40:31.476Z,24.70
2018-02-16T07:41:31.465Z,23.20
2018-02-16T07:42:31.458Z,24.10
2018-02-16T07:43:31.447Z,24.50
2018-02-16T07:44:31.436Z,24.50
2018-02-16T07:45:31.425Z,22.30
2018-02-16T07:46:31.415Z,23.70
2018-02-16T07:47:31.403Z,23.70
2018-02-16T07:48:31.392Z,23.20
2018-02-16T07:49:31.382Z,23.40
2018-02-16T07:50:31.367Z,23.10
2018-02-16T07:51:31.355Z,22.60
2018-02-16T07:52:31.344Z,23.60
2018-02-16T07:53:31.334Z,22.00
2018-02-16T07:54:31.323Z,21.90
2018-02-16T07:55:31.361Z,19.90
2018-02-16T07:56:31.302Z,18.70
2018-02-16T07:57:31.292Z,18.70
2018-02-16T07:58:31.285Z,20.90
2018-02-16T07:59:31.274Z,20.80
2018-02-16T08:00:31.264Z,19.60
2018-02-16T08:01:31.253Z,19.80
2018-02-16T08:02:31.243Z,20.80
2018-02-16T08:03:31.232Z,18.00
2018-02-16T08:04:31.224Z,19.80
2018-02-16T08:05:31.211Z,19.30
2018-02-16T08:06:31.196Z,20.80
2018-02-16T08:07:31.185Z,20.20
2018-02-16T08:08:31.174Z,19.30
2018-02-16T08:09:31.165Z,18.50
2018-02-16T08:10:31.154Z,19.50
2018-02-16T08:11:31.143Z,17.60
2018-02-16T08:12:31.134Z,19.10
2018-02-16T08:13:31.123Z,18.70
2018-02-16T08:14:31.117Z,17.10
2018-02-16T08:15:31.105Z,17.60
2018-02-16T08:16:31.100Z,17.10
2018-02-16T08:17:31.085Z,16.90
2018-02-16T08:18:31.071Z,16.60
2018-02-16T08:19:31.060Z,16.30
2018-02-16T08:20:31.050Z,16.50
2018-02-16T08:21:31.040Z,15.50
2018-02-16T08:22:31.035Z,15.90
2018-02-16T08:23:31.024Z,15.70
2018-02-16T08:24:31.014Z,15.20
2018-02-16T08:25:31.004Z,15.40
2018-02-16T08:26:30.993Z,15.00
2018-02-16T08:27:30.982Z,15.20
2018-02-16T08:28:30.972Z,14.60
2018-02-16T08:29:30.962Z,14.00
2018-02-16T08:30:30.948Z,13.00
2018-02-16T08:31:30.937Z,13.90
2018-02-16T08:32:30.927Z,13.40
2018-02-16T08:33:30.921Z,13.10
2018-02-16T08:34:30.911Z,12.70
2018-02-16T08:35:30.897Z,13.80
2018-02-16T08:36:30.887Z,13.20
2018-02-16T08:37:30.877Z,13.70
2018-02-16T08:38:30.872Z,13.00
2018-02-16T08:39:30.862Z,12.60
2018-02-16T08:40:30.852Z,12.70
2018-02-16T08:41:30.842Z,12.80
2018-02-16T08:42:30.831Z,13.80
2018-02-16T08:43:30.823Z,12.80
2018-02-16T08:44:30.815Z,12.70
2018-02-16T08:45:30.802Z,13.80
2018-02-16T08:46:30.789Z,13.30
2018-02-16T08:47:30.778Z,13.20
2018-02-16T08:48:30.770Z,13.50
2018-02-16T08:49:30.762Z,13.30
2018-02-16T08:50:30.750Z,12.50
2018-02-16T08:51:30.741Z,11.90
2018-02-16T08:52:30.733Z,13.00
2018-02-16T08:53:30.724Z,13.50
2018-02-16T08:54:30.718Z,13.20
2018-02-16T08:55:30.709Z,14.10
2018-02-16T08:56:30.700Z,14.20
2018-02-16T08:57:30.692Z,13.90
2018-02-16T08:58:30.684Z,14.50
2018-02-16T08:59:30.675Z,13.90
2018-02-16T09:00:30.667Z,13.90
2018-02-16T09:01:30.660Z,13.90
2018-02-16T09:02:30.649Z,15.50
2018-02-16T09:03:30.642Z,15.50
2018-02-16T09:04:30.635Z,15.60
2018-02-16T09:05:30.627Z,14.70
2018-02-16T09:06:30.660Z,14.60
2018-02-16T09:07:30.615Z,15.30
2018-02-16T09:08:30.611Z,15.70
2018-02-16T09:09:30.603Z,15.60
2018-02-16T09:10:30.601Z,14.00
2018-02-16T09:11:30.594Z,14.40
2018-02-16T09:12:30.588Z,15.20
2018-02-16T09:13:30.582Z,13.50
2018-02-16T09:14:30.576Z,14.70
2018-02-16T09:15:30.570Z,15.90
2018-02-16T09:16:30.567Z,15.30
2018-02-16T09:17:30.560Z,15.00
2018-02-16T09:18:30.551Z,14.10
2018-02-16T09:19:30.544Z,15.70
2018-02-16T09:20:30.542Z,15.40
2018-02-16T09:21:30.578Z,13.70
2018-02-16T09:22:30.536Z,13.90
2018-02-16T09:23:30.539Z,14.60
2018-02-16T09:24:30.530Z,14.90
2018-02-16T09:25:30.528Z,15.50
2018-02-16T09:26:30.521Z,14.60
2018-02-16T09:27:30.519Z,15.20
2018-02-16T09:28:30.517Z,15.10
2018-02-16T09:29:30.517Z,15.60
2018-02-16T09:30:30.519Z,16.40
2018-02-16T09:31:30.515Z,16.70
2018-02-16T09:32:30.515Z,16.40
2018-02-16T09:33:30.516Z,16.60
2018-02-16T09:34:30.521Z,17.00
2018-02-16T09:35:30.522Z,16.30
2018-02-16T09:36:30.522Z,16.60
2018-02-16T09:37:30.524Z,16.50
2018-02-16T09:38:30.526Z,15.90
2018-02-16T09:39:30.527Z,15.80
2018-02-16T09:40:30.575Z,17.60
2018-02-16T09:41:30.532Z,16.10
2018-02-16T09:42:30.530Z,16.80
2018-02-16T09:43:30.533Z,16.20
2018-02-16T09:44:30.536Z,16.00
2018-02-16T09:45:30.539Z,16.50
2018-02-16T09:46:30.543Z,16.80
2018-02-16T09:47:30.545Z,16.80
2018-02-16T09:48:30.549Z,15.60
2018-02-16T09:49:30.553Z,15.80
2018-02-16T09:50:30.562Z,15.90
2018-02-16T09:51:30.565Z,16.20
2018-02-16T09:52:30.570Z,16.60
2018-02-16T09:53:30.575Z,16.20
2018-02-16T09:54:30.614Z,16.40
2018-02-16T09:55:30.583Z,16.40
2018-02-16T09:56:30.589Z,16.20
2018-02-16T09:57:30.594Z,16.00
2018-02-16T09:58:30.595Z,15.80
2018-02-16T09:59:30.599Z,16.60
2018-02-16T10:00:30.604Z,16.40
2018-02-16T10:01:30.610Z,16.20
2018-02-16T10:02:30.616Z,16.30
2018-02-16T10:03:30.620Z,16.90
2018-02-16T10:04:30.627Z,16.80
2018-02-16T10:05:30.632Z,16.40
2018-02-16T10:06:30.643Z,16.70
2018-02-16T10:07:30.647Z,15.90
2018-02-16T10:08:30.654Z,15.90
2018-02-16T10:09:30.660Z,16.40
2018-02-16T10:10:30.684Z,16.30
2018-02-16T10:11:30.672Z,16.40
2018-02-16T10:12:30.677Z,15.90
2018-02-16T10:13:30.684Z,15.50
2018-02-16T10:14:30.687Z,16.30
2018-02-16T10:15:30.693Z,15.70
2018-02-16T10:16:30.699Z,15.20
2018-02-16T10:17:30.706Z,15.90
2018-02-16T10:18:30.714Z,16.00
2018-02-16T10:19:30.719Z,15.60
2018-02-16T10:20:30.726Z,15.80
2018-02-16T10:21:30.732Z,15.60
2018-02-16T10:22:30.744Z,15.60
2018-02-16T10:23:30.750Z,15.60
2018-02-16T10:24:30.757Z,15.60
2018-02-16T10:25:30.764Z,16.00
2018-02-16T10:26:30.767Z,15.30
2018-02-16T10:27:30.773Z,15.30
2018-02-16T10:28:30.781Z,15.70
2018-02-16T10:29:30.788Z,16.50
2018-02-16T10:30:30.800Z,15.90
2018-02-16T10:31:30.805Z,16.20
2018-02-16T10:32:30.814Z,15.70
2018-02-16T10:33:30.820Z,15.80
2018-02-16T10:34:30.828Z,15.30
2018-02-16T10:35:30.836Z,15.20
2018-02-16T10:36:30.841Z,14.70
2018-02-16T10:37:30.849Z,14.60
2018-02-16T10:38:30.852Z,15.40
2018-02-16T10:39:30.858Z,14.70
2018-02-16T10:40:30.866Z,14.80
2018-02-16T10:41:30.878Z,15.80
2018-02-16T10:42:30.882Z,15.40
2018-02-16T10:43:30.888Z,15.00
2018-02-16T10:44:30.900Z,14.80
2018-02-16T10:45:30.902Z,15.10
2018-02-16T10:46:30.914Z,15.20
2018-02-16T10:47:30.921Z,14.10
2018-02-16T10:48:30.928Z,14.20
2018-02-16T10:49:30.944Z,14.40
2018-02-16T10:50:30.942Z,14.60
2018-02-16T10:51:30.950Z,14.20
2018-02-16T10:52:30.964Z,14.20
2018-02-16T10:53:30.963Z,13.90
2018-02-16T10:54:30.975Z,14.30
2018-02-16T10:55:30.973Z,14.60
2018-02-16T10:56:30.980Z,14.10
2018-02-16T10:57:30.988Z,14.20
2018-02-16T10:58:31.012Z,14.10
2018-02-16T10:59:31.002Z,14.80
2018-02-16T11:00:31.008Z,14.60
2018-02-16T11:01:31.018Z,14.40
2018-02-16T11:02:31.028Z,14.90
2018-02-16T11:03:31.056Z,14.20
2018-02-16T11:04:31.039Z,14.60
2018-02-16T11:05:31.047Z,14.50
2018-02-16T11:06:31.055Z,14.20
2018-02-16T11:07:31.061Z,14.10
2018-02-16T11:08:31.069Z,13.60
2018-02-16T11:09:31.079Z,14.60
2018-02-16T11:10:31.080Z,14.70
2018-02-16T11:11:31.085Z,14.30
2018-02-16T11:12:31.093Z,14.80
2018-02-16T11:13:31.100Z,14.70
2018-02-16T11:14:31.109Z,15.10
2018-02-16T11:15:31.120Z,15.00
2018-02-16T11:16:31.122Z,15.00
2018-02-16T11:17:31.129Z,14.90
2018-02-16T11:18:31.141Z,14.80
2018-02-16T11:19:31.147Z,15.10
2018-02-16T11:20:31.154Z,15.10
2018-02-16T11:21:31.162Z,14.70
2018-02-16T11:22:31.169Z,14.20
2018-02-16T11:23:31.185Z,14.70
2018-02-16T11:24:31.182Z,14.00
2018-02-16T11:25:31.202Z,14.30
2018-02-16T11:26:31.192Z,15.20
2018-02-16T11:27:31.197Z,14.70
2018-02-16T11:28:31.204Z,15.40
2018-02-16T11:29:31.210Z,14.80
2018-02-16T11:30:31.221Z,14.20
2018-02-16T11:31:31.226Z,13.60
2018-02-16T11:32:31.230Z,13.00
2018-02-16T11:33:31.238Z,13.30
2018-02-16T11:34:31.239Z,13.40
2018-02-16T11:35:31.243Z,13.70
2018-02-16T11:36:31.248Z,12.50
2018-02-16T11:37:31.253Z,12.30
2018-02-16T11:38:31.259Z,13.10
2018-02-16T11:39:31.314Z,12.60
2018-02-16T11:40:31.268Z,13.10
2018-02-16T11:41:31.272Z,12.80
2018-02-16T11:42:31.282Z,12.70
2018-02-16T11:43:31.284Z,12.70
2018-02-16T11:44:31.288Z,12.00
2018-02-16T11:45:31.293Z,12.70
2018-02-16T11:46:31.297Z,12.60
2018-02-16T11:47:31.300Z,12.30
2018-02-16T11:48:31.304Z,12.20
2018-02-16T11:49:31.307Z,12.60
2018-02-16T11:50:31.306Z,12.10
2018-02-16T11:51:31.309Z,11.70
2018-02-16T11:52:31.312Z,12.00
2018-02-16T11:53:31.315Z,11.10
2018-02-16T11:54:31.320Z,11.50
2018-02-16T11:55:31.318Z,11.80
2018-02-16T11:56:31.322Z,11.30
2018-02-16T11:57:31.325Z,12.30
2018-02-16T11:58:31.330Z,11.60
2018-02-16T11:59:31.329Z,11.70
2018-02-16T12:00:31.333Z,12.70
2018-02-16T12:01:31.331Z,10.70
2018-02-16T12:02:31.331Z,10.30
2018-02-16T12:03:31.331Z,10.20
2018-02-16T12:04:31.331Z,9.80
2018-02-16T12:05:31.364Z,10.20
2018-02-16T12:06:31.328Z,10.90
2018-02-16T12:07:31.326Z,10.80
2018-02-16T12:08:31.327Z,10.20
2018-02-16T12:09:31.326Z,10.60
2018-02-16T12:10:31.325Z,10.30
2018-02-16T12:11:31.323Z,9.80
2018-02-16T12:12:31.322Z,9.80
2018-02-16T12:13:31.321Z,10.70
2018-02-16T12:14:31.324Z,9.60
2018-02-16T12:15:31.365Z,9.80
2018-02-16T12:16:31.320Z,9.70
2018-02-16T12:17:31.319Z,9.50
2018-02-16T12:18:31.320Z,8.90
2018-02-16T12:19:31.315Z,9.20
2018-02-16T12:20:31.312Z,10.00
2018-02-16T12:21:31.311Z,9.60
2018-02-16T12:22:31.305Z,9.20
2018-02-16T12:23:31.302Z,9.00
2018-02-16T12:24:31.299Z,10.00
2018-02-16T12:25:31.296Z,9.40
2018-02-16T12:26:31.294Z,10.80
2018-02-16T12:27:31.294Z,10.10
2018-02-16T12:28:31.288Z,11.80
2018-02-16T12:29:31.286Z,10.20
2018-02-16T12:30:31.287Z,9.70
2018-02-16T12:31:31.283Z,9.70
2018-02-16T12:32:31.283Z,9.70
2018-02-16T12:33:31.277Z,10.00
2018-02-16T12:34:31.301Z,10.10
2018-02-16T12:35:31.266Z,9.80
2018-02-16T12:36:31.263Z,9.50
2018-02-16T12:37:31.261Z,9.90
2018-02-16T12:38:31.262Z,9.50
2018-02-16T12:39:31.258Z,10.40
2018-02-16T12:40:31.255Z,10.20
2018-02-16T12:41:31.252Z,10.50
2018-02-16T12:42:31.249Z,9.70
2018-02-16T12:43:31.249Z,10.30
2018-02-16T12:44:31.242Z,10.50
2018-02-16T12:45:31.239Z,9.90
2018-02-16T12:46:31.231Z,10.10
2018-02-16T12:47:31.230Z,11.60
2018-02-16T12:48:31.225Z,9.80
2018-02-16T12:49:31.221Z,9.70
2018-02-16T12:50:31.218Z,9.50
2018-02-16T12:51:31.213Z,10.00
2018-02-16T12:52:31.210Z,10.90
2018-02-16T12:53:31.207Z,9.40